sensor_id;sensor_type;location;lat;lon;timestamp;P1;durP1;ratioP1;P2;durP2;ratioP2
60718;SDS011;46567;51.660;5.824;2023-07-29T00:01:58;3.2;;;2.9;;
60718;SDS011;46567;51.660;5.824;2023-07-29T00:06:58;4.3;;;3.3;;
60718;SDS011;46567;51.660;5.824;2023-07-29T00:11:58;6.1;;;3.9;;
60718;SDS011;46567;51.660;5.824;2023-07-29T00:16:58;3.5;;;3.1;;
60718;SDS011;46567;51.660;5.824;2023-07-29T00:21:58;4.4;;;3.3;;
60718;SDS011;46567;51.660;5.824;2023-07-29T00:26:58;5.1;;;3.5;;
60718;SDS011;46567;51.660;5.824;2023-07-29T00:31:58;6.1;;;3.6;;
60718;SDS011;46567;51.660;5.824;2023-07-29T00:36:58;4.2;;;3.3;;
60718;SDS011;46567;51.660;5.824;2023-07-29T00:41:58;4.2;;;3.4;;
60718;SDS011;46567;51.660;5.824;2023-07-29T00:47:02;6.0;;;3.8;;
60718;SDS011;46567;51.660;5.824;2023-07-29T00:51:58;4.2;;;3.7;;
60718;SDS011;46567;51.660;5.824;2023-07-29T00:56:58;6.9;;;4.0;;
60718;SDS011;46567;51.660;5.824;2023-07-29T01:01:58;4.9;;;4.0;;
60718;SDS011;46567;51.660;5.824;2023-07-29T01:07:09;4.3;;;3.9;;
60718;SDS011;46567;51.660;5.824;2023-07-29T01:12:12;6.8;;;4.0;;
60718;SDS011;46567;51.660;5.824;2023-07-29T01:17:00;5.8;;;3.8;;
60718;SDS011;46567;51.660;5.824;2023-07-29T01:21:58;5.9;;;3.8;;
60718;SDS011;46567;51.660;5.824;2023-07-29T01:26:58;5.9;;;3.9;;
60718;SDS011;46567;51.660;5.824;2023-07-29T01:32:17;5.2;;;3.7;;
60718;SDS011;46567;51.660;5.824;2023-07-29T01:36:58;5.7;;;3.7;;
60718;SDS011;46567;51.660;5.824;2023-07-29T01:41:58;4.9;;;4.1;;
60718;SDS011;46567;51.660;5.824;2023-07-29T01:46:58;8.2;;;4.3;;
60718;SDS011;46567;51.660;5.824;2023-07-29T01:51:58;6.8;;;3.8;;
60718;SDS011;46567;51.660;5.824;2023-07-29T01:56:58;5.0;;;3.8;;
60718;SDS011;46567;51.660;5.824;2023-07-29T02:01:58;5.4;;;4.5;;
60718;SDS011;46567;51.660;5.824;2023-07-29T02:06:58;5.9;;;4.0;;
60718;SDS011;46567;51.660;5.824;2023-07-29T02:11:58;5.7;;;4.2;;
60718;SDS011;46567;51.660;5.824;2023-07-29T02:16:58;8.4;;;4.8;;
60718;SDS011;46567;51.660;5.824;2023-07-29T02:21:58;6.0;;;4.2;;
60718;SDS011;46567;51.660;5.824;2023-07-29T02:26:58;5.2;;;4.0;;
60718;SDS011;46567;51.660;5.824;2023-07-29T02:31:58;6.5;;;4.9;;
60718;SDS011;46567;51.660;5.824;2023-07-29T02:36:58;7.5;;;5.1;;
60718;SDS011;46567;51.660;5.824;2023-07-29T02:41:58;6.5;;;5.2;;
60718;SDS011;46567;51.660;5.824;2023-07-29T02:46:58;6.3;;;4.9;;
60718;SDS011;46567;51.660;5.824;2023-07-29T02:51:58;7.3;;;4.8;;
60718;SDS011;46567;51.660;5.824;2023-07-29T02:56:58;7.8;;;4.7;;
60718;SDS011;46567;51.660;5.824;2023-07-29T03:01:58;7.6;;;5.0;;
60718;SDS011;46567;51.660;5.824;2023-07-29T03:06:58;6.5;;;5.0;;
60718;SDS011;46567;51.660;5.824;2023-07-29T03:11:58;7.4;;;5.4;;
60718;SDS011;46567;51.660;5.824;2023-07-29T03:17:01;7.6;;;5.8;;
60718;SDS011;46567;51.660;5.824;2023-07-29T03:21:58;6.1;;;5.4;;
60718;SDS011;46567;51.660;5.824;2023-07-29T03:26:58;8.2;;;6.0;;
60718;SDS011;46567;51.660;5.824;2023-07-29T03:31:58;6.7;;;5.6;;
60718;SDS011;46567;51.660;5.824;2023-07-29T03:36:59;6.4;;;5.2;;
60718;SDS011;46567;51.660;5.824;2023-07-29T03:41:58;5.8;;;5.2;;
60718;SDS011;46567;51.660;5.824;2023-07-29T03:46:58;7.8;;;5.8;;
60718;SDS011;46567;51.660;5.824;2023-07-29T03:51:58;7.7;;;5.8;;
60718;SDS011;46567;51.660;5.824;2023-07-29T03:56:58;9.1;;;5.5;;
60718;SDS011;46567;51.660;5.824;2023-07-29T04:01:58;6.5;;;5.1;;
60718;SDS011;46567;51.660;5.824;2023-07-29T04:06:58;7.6;;;5.6;;
60718;SDS011;46567;51.660;5.824;2023-07-29T04:11:58;7.0;;;5.4;;
60718;SDS011;46567;51.660;5.824;2023-07-29T04:16:58;6.1;;;5.0;;
60718;SDS011;46567;51.660;5.824;2023-07-29T04:21:58;6.6;;;5.3;;
60718;SDS011;46567;51.660;5.824;2023-07-29T04:26:58;6.3;;;4.8;;
60718;SDS011;46567;51.660;5.824;2023-07-29T04:31:58;6.3;;;5.1;;
60718;SDS011;46567;51.660;5.824;2023-07-29T04:36:58;7.0;;;5.5;;
60718;SDS011;46567;51.660;5.824;2023-07-29T04:41:58;6.9;;;4.5;;
60718;SDS011;46567;51.660;5.824;2023-07-29T04:46:58;7.8;;;4.8;;
60718;SDS011;46567;51.660;5.824;2023-07-29T04:51:58;6.4;;;4.7;;
60718;SDS011;46567;51.660;5.824;2023-07-29T04:56:58;5.7;;;4.8;;
60718;SDS011;46567;51.660;5.824;2023-07-29T05:01:58;6.4;;;4.6;;
60718;SDS011;46567;51.660;5.824;2023-07-29T05:06:58;5.1;;;4.1;;
60718;SDS011;46567;51.660;5.824;2023-07-29T05:11:58;4.8;;;4.2;;
60718;SDS011;46567;51.660;5.824;2023-07-29T05:16:58;5.8;;;4.3;;
60718;SDS011;46567;51.660;5.824;2023-07-29T05:21:58;6.6;;;4.4;;
60718;SDS011;46567;51.660;5.824;2023-07-29T05:26:58;6.3;;;4.0;;
60718;SDS011;46567;51.660;5.824;2023-07-29T05:31:58;4.8;;;3.8;;
60718;SDS011;46567;51.660;5.824;2023-07-29T05:36:58;5.0;;;3.8;;
60718;SDS011;46567;51.660;5.824;2023-07-29T05:41:58;6.4;;;4.0;;
60718;SDS011;46567;51.660;5.824;2023-07-29T05:46:58;7.0;;;3.6;;
60718;SDS011;46567;51.660;5.824;2023-07-29T05:51:58;5.2;;;3.8;;
60718;SDS011;46567;51.660;5.824;2023-07-29T05:56:58;4.7;;;3.8;;
60718;SDS011;46567;51.660;5.824;2023-07-29T06:01:58;4.1;;;3.5;;
60718;SDS011;46567;51.660;5.824;2023-07-29T06:06:58;6.2;;;4.0;;
60718;SDS011;46567;51.660;5.824;2023-07-29T06:11:58;5.2;;;3.8;;
60718;SDS011;46567;51.660;5.824;2023-07-29T06:16:58;6.1;;;3.9;;
60718;SDS011;46567;51.660;5.824;2023-07-29T06:21:58;4.1;;;3.7;;
60718;SDS011;46567;51.660;5.824;2023-07-29T06:26:58;4.1;;;3.5;;
60718;SDS011;46567;51.660;5.824;2023-07-29T06:31:58;3.8;;;3.2;;
60718;SDS011;46567;51.660;5.824;2023-07-29T06:36:58;4.1;;;3.7;;
60718;SDS011;46567;51.660;5.824;2023-07-29T06:41:58;4.3;;;3.8;;
60718;SDS011;46567;51.660;5.824;2023-07-29T06:46:58;4.7;;;3.4;;
60718;SDS011;46567;51.660;5.824;2023-07-29T06:51:58;5.2;;;3.5;;
60718;SDS011;46567;51.660;5.824;2023-07-29T06:56:58;4.7;;;3.7;;
60718;SDS011;46567;51.660;5.824;2023-07-29T07:01:58;3.9;;;3.5;;
60718;SDS011;46567;51.660;5.824;2023-07-29T07:06:58;4.9;;;4.1;;
60718;SDS011;46567;51.660;5.824;2023-07-29T07:11:58;6.6;;;4.7;;
60718;SDS011;46567;51.660;5.824;2023-07-29T07:16:58;5.0;;;4.4;;
60718;SDS011;46567;51.660;5.824;2023-07-29T07:21:58;4.9;;;4.2;;
60718;SDS011;46567;51.660;5.824;2023-07-29T07:26:58;4.2;;;3.8;;
60718;SDS011;46567;51.660;5.824;2023-07-29T07:31:58;5.7;;;4.0;;
60718;SDS011;46567;51.660;5.824;2023-07-29T07:36:58;6.1;;;3.9;;
60718;SDS011;46567;51.660;5.824;2023-07-29T07:41:58;4.0;;;2.9;;
60718;SDS011;46567;51.660;5.824;2023-07-29T07:46:58;5.0;;;2.8;;
60718;SDS011;46567;51.660;5.824;2023-07-29T07:51:58;5.2;;;2.9;;
60718;SDS011;46567;51.660;5.824;2023-07-29T07:56:58;5.3;;;3.0;;
60718;SDS011;46567;51.660;5.824;2023-07-29T08:01:58;4.0;;;2.6;;
60718;SDS011;46567;51.660;5.824;2023-07-29T08:06:58;5.1;;;2.9;;
60718;SDS011;46567;51.660;5.824;2023-07-29T08:11:58;3.1;;;2.6;;
60718;SDS011;46567;51.660;5.824;2023-07-29T08:16:58;3.6;;;2.8;;
60718;SDS011;46567;51.660;5.824;2023-07-29T08:21:58;4.1;;;2.8;;
60718;SDS011;46567;51.660;5.824;2023-07-29T08:26:58;4.7;;;2.4;;
60718;SDS011;46567;51.660;5.824;2023-07-29T08:31:58;4.2;;;2.6;;
60718;SDS011;46567;51.660;5.824;2023-07-29T08:36:58;2.6;;;2.4;;
60718;SDS011;46567;51.660;5.824;2023-07-29T08:42:04;3.0;;;2.5;;
60718;SDS011;46567;51.660;5.824;2023-07-29T08:46:58;3.3;;;2.5;;
60718;SDS011;46567;51.660;5.824;2023-07-29T08:51:58;2.7;;;2.1;;
60718;SDS011;46567;51.660;5.824;2023-07-29T08:56:58;5.5;;;2.2;;
60718;SDS011;46567;51.660;5.824;2023-07-29T09:01:58;2.4;;;2.2;;
60718;SDS011;46567;51.660;5.824;2023-07-29T09:07:00;2.7;;;1.7;;
60718;SDS011;46567;51.660;5.824;2023-07-29T09:11:58;2.3;;;2.0;;
60718;SDS011;46567;51.660;5.824;2023-07-29T09:16:58;2.8;;;1.9;;
60718;SDS011;46567;51.660;5.824;2023-07-29T09:21:58;2.5;;;1.6;;
60718;SDS011;46567;51.660;5.824;2023-07-29T09:26:58;2.5;;;1.8;;
60718;SDS011;46567;51.660;5.824;2023-07-29T09:32:17;2.3;;;1.7;;
60718;SDS011;46567;51.660;5.824;2023-07-29T09:36:58;3.3;;;1.5;;
60718;SDS011;46567;51.660;5.824;2023-07-29T09:41:58;2.2;;;1.4;;
60718;SDS011;46567;51.660;5.824;2023-07-29T09:46:58;2.5;;;1.3;;
60718;SDS011;46567;51.660;5.824;2023-07-29T09:51:58;1.9;;;1.2;;
60718;SDS011;46567;51.660;5.824;2023-07-29T09:56:58;2.3;;;1.2;;
60718;SDS011;46567;51.660;5.824;2023-07-29T10:01:58;2.3;;;1.3;;
60718;SDS011;46567;51.660;5.824;2023-07-29T10:06:58;2.0;;;1.1;;
60718;SDS011;46567;51.660;5.824;2023-07-29T10:11:58;2.8;;;1.2;;
60718;SDS011;46567;51.660;5.824;2023-07-29T10:16:58;3.3;;;1.0;;
60718;SDS011;46567;51.660;5.824;2023-07-29T10:22:00;1.3;;;1.2;;
60718;SDS011;46567;51.660;5.824;2023-07-29T10:26:59;1.8;;;1.1;;
60718;SDS011;46567;51.660;5.824;2023-07-29T10:32:01;2.5;;;1.3;;
60718;SDS011;46567;51.660;5.824;2023-07-29T10:36:58;2.8;;;1.3;;
60718;SDS011;46567;51.660;5.824;2023-07-29T10:42:05;2.2;;;1.3;;
60718;SDS011;46567;51.660;5.824;2023-07-29T10:46:58;1.4;;;1.3;;
60718;SDS011;46567;51.660;5.824;2023-07-29T10:51:58;1.6;;;1.4;;
60718;SDS011;46567;51.660;5.824;2023-07-29T10:56:58;1.5;;;1.4;;
60718;SDS011;46567;51.660;5.824;2023-07-29T11:01:59;2.3;;;1.4;;
60718;SDS011;46567;51.660;5.824;2023-07-29T11:07:19;1.9;;;1.4;;
60718;SDS011;46567;51.660;5.824;2023-07-29T11:11:59;1.8;;;1.4;;
60718;SDS011;46567;51.660;5.824;2023-07-29T11:16:58;2.0;;;1.7;;
60718;SDS011;46567;51.660;5.824;2023-07-29T11:21:58;2.1;;;1.4;;
60718;SDS011;46567;51.660;5.824;2023-07-29T11:26:58;1.6;;;1.5;;
60718;SDS011;46567;51.660;5.824;2023-07-29T11:31:58;2.0;;;1.5;;
60718;SDS011;46567;51.660;5.824;2023-07-29T11:36:58;1.8;;;1.5;;
60718;SDS011;46567;51.660;5.824;2023-07-29T11:41:59;2.6;;;1.3;;
60718;SDS011;46567;51.660;5.824;2023-07-29T11:46:58;1.9;;;1.5;;
60718;SDS011;46567;51.660;5.824;2023-07-29T11:51:58;2.8;;;1.4;;
60718;SDS011;46567;51.660;5.824;2023-07-29T11:56:58;3.7;;;1.3;;
60718;SDS011;46567;51.660;5.824;2023-07-29T12:01:58;2.7;;;1.4;;
60718;SDS011;46567;51.660;5.824;2023-07-29T12:06:58;2.8;;;1.5;;
60718;SDS011;46567;51.660;5.824;2023-07-29T12:11:59;2.6;;;1.4;;
60718;SDS011;46567;51.660;5.824;2023-07-29T12:16:59;2.4;;;1.3;;
60718;SDS011;46567;51.660;5.824;2023-07-29T12:21:58;2.0;;;1.3;;
60718;SDS011;46567;51.660;5.824;2023-07-29T12:26:59;2.2;;;1.5;;
60718;SDS011;46567;51.660;5.824;2023-07-29T12:31:59;2.1;;;1.4;;
60718;SDS011;46567;51.660;5.824;2023-07-29T12:36:59;2.8;;;1.2;;
60718;SDS011;46567;51.660;5.824;2023-07-29T12:41:59;2.2;;;0.6;;
60718;SDS011;46567;51.660;5.824;2023-07-29T12:46:59;2.2;;;1.1;;
60718;SDS011;46567;51.660;5.824;2023-07-29T12:51:59;5.9;;;1.7;;
60718;SDS011;46567;51.660;5.824;2023-07-29T12:56:58;5.3;;;1.9;;
60718;SDS011;46567;51.660;5.824;2023-07-29T13:01:58;4.6;;;1.7;;
60718;SDS011;46567;51.660;5.824;2023-07-29T13:06:58;4.6;;;1.7;;
60718;SDS011;46567;51.660;5.824;2023-07-29T13:11:58;2.4;;;1.5;;
60718;SDS011;46567;51.660;5.824;2023-07-29T13:16:58;4.3;;;1.4;;
60718;SDS011;46567;51.660;5.824;2023-07-29T13:21:58;1.9;;;1.3;;
60718;SDS011;46567;51.660;5.824;2023-07-29T13:26:58;2.0;;;1.5;;
60718;SDS011;46567;51.660;5.824;2023-07-29T13:31:58;2.8;;;2.1;;
60718;SDS011;46567;51.660;5.824;2023-07-29T13:36:58;3.0;;;2.5;;
60718;SDS011;46567;51.660;5.824;2023-07-29T13:41:59;3.7;;;2.7;;
60718;SDS011;46567;51.660;5.824;2023-07-29T13:46:58;3.2;;;2.6;;
60718;SDS011;46567;51.660;5.824;2023-07-29T13:51:58;2.6;;;2.0;;
60718;SDS011;46567;51.660;5.824;2023-07-29T13:56:59;4.0;;;2.4;;
60718;SDS011;46567;51.660;5.824;2023-07-29T14:01:59;3.3;;;2.0;;
60718;SDS011;46567;51.660;5.824;2023-07-29T14:06:58;2.2;;;1.4;;
60718;SDS011;46567;51.660;5.824;2023-07-29T14:11:58;1.6;;;1.5;;
60718;SDS011;46567;51.660;5.824;2023-07-29T14:16:58;1.9;;;1.7;;
60718;SDS011;46567;51.660;5.824;2023-07-29T14:21:58;2.8;;;1.6;;
60718;SDS011;46567;51.660;5.824;2023-07-29T14:26:58;1.3;;;1.2;;
60718;SDS011;46567;51.660;5.824;2023-07-29T14:31:59;1.7;;;1.5;;
60718;SDS011;46567;51.660;5.824;2023-07-29T14:36:58;2.4;;;1.5;;
60718;SDS011;46567;51.660;5.824;2023-07-29T14:41:59;2.7;;;1.6;;
60718;SDS011;46567;51.660;5.824;2023-07-29T14:46:58;2.2;;;1.5;;
60718;SDS011;46567;51.660;5.824;2023-07-29T14:51:59;2.4;;;1.5;;
60718;SDS011;46567;51.660;5.824;2023-07-29T14:56:58;5.3;;;1.8;;
60718;SDS011;46567;51.660;5.824;2023-07-29T15:01:59;2.0;;;1.8;;
60718;SDS011;46567;51.660;5.824;2023-07-29T15:06:58;1.5;;;1.3;;
60718;SDS011;46567;51.660;5.824;2023-07-29T15:11:59;2.8;;;1.5;;
60718;SDS011;46567;51.660;5.824;2023-07-29T15:16:59;1.9;;;1.7;;
60718;SDS011;46567;51.660;5.824;2023-07-29T15:21:58;4.5;;;2.0;;
60718;SDS011;46567;51.660;5.824;2023-07-29T15:26:58;2.1;;;1.8;;
60718;SDS011;46567;51.660;5.824;2023-07-29T15:31:59;2.3;;;1.5;;
60718;SDS011;46567;51.660;5.824;2023-07-29T15:36:58;1.5;;;1.4;;
60718;SDS011;46567;51.660;5.824;2023-07-29T15:41:59;2.4;;;1.3;;
60718;SDS011;46567;51.660;5.824;2023-07-29T15:46:59;1.8;;;1.6;;
60718;SDS011;46567;51.660;5.824;2023-07-29T15:51:59;2.0;;;1.9;;
60718;SDS011;46567;51.660;5.824;2023-07-29T15:56:58;2.7;;;2.3;;
60718;SDS011;46567;51.660;5.824;2023-07-29T16:01:59;1.7;;;1.6;;
60718;SDS011;46567;51.660;5.824;2023-07-29T16:06:58;2.1;;;1.6;;
60718;SDS011;46567;51.660;5.824;2023-07-29T16:11:59;2.0;;;1.6;;
60718;SDS011;46567;51.660;5.824;2023-07-29T16:16:59;2.5;;;1.7;;
60718;SDS011;46567;51.660;5.824;2023-07-29T16:21:59;3.4;;;2.3;;
60718;SDS011;46567;51.660;5.824;2023-07-29T16:26:59;5.8;;;2.7;;
60718;SDS011;46567;51.660;5.824;2023-07-29T16:31:59;3.2;;;1.9;;
60718;SDS011;46567;51.660;5.824;2023-07-29T16:36:59;1.4;;;1.3;;
60718;SDS011;46567;51.660;5.824;2023-07-29T16:41:59;3.4;;;1.5;;
60718;SDS011;46567;51.660;5.824;2023-07-29T16:46:59;2.0;;;1.9;;
60718;SDS011;46567;51.660;5.824;2023-07-29T16:51:59;2.3;;;1.9;;
60718;SDS011;46567;51.660;5.824;2023-07-29T16:56:59;2.5;;;2.0;;
60718;SDS011;46567;51.660;5.824;2023-07-29T17:01:59;2.4;;;2.2;;
60718;SDS011;46567;51.660;5.824;2023-07-29T17:06:59;2.4;;;2.2;;
60718;SDS011;46567;51.660;5.824;2023-07-29T17:11:59;2.3;;;2.1;;
60718;SDS011;46567;51.660;5.824;2023-07-29T17:16:59;2.6;;;2.4;;
60718;SDS011;46567;51.660;5.824;2023-07-29T17:21:59;2.9;;;2.4;;
60718;SDS011;46567;51.660;5.824;2023-07-29T17:26:59;2.8;;;2.3;;
60718;SDS011;46567;51.660;5.824;2023-07-29T17:31:59;2.4;;;2.2;;
60718;SDS011;46567;51.660;5.824;2023-07-29T17:36:59;2.9;;;2.0;;
60718;SDS011;46567;51.660;5.824;2023-07-29T17:41:59;2.4;;;2.2;;
60718;SDS011;46567;51.660;5.824;2023-07-29T17:46:59;5.1;;;2.8;;
60718;SDS011;46567;51.660;5.824;2023-07-29T17:51:59;3.7;;;3.1;;
60718;SDS011;46567;51.660;5.824;2023-07-29T17:56:59;2.4;;;2.1;;
60718;SDS011;46567;51.660;5.824;2023-07-29T18:01:59;3.4;;;2.4;;
60718;SDS011;46567;51.660;5.824;2023-07-29T18:06:59;3.2;;;2.1;;
60718;SDS011;46567;51.660;5.824;2023-07-29T18:11:59;3.0;;;2.3;;
60718;SDS011;46567;51.660;5.824;2023-07-29T18:16:59;3.1;;;2.6;;
60718;SDS011;46567;51.660;5.824;2023-07-29T18:21:59;2.6;;;2.4;;
60718;SDS011;46567;51.660;5.824;2023-07-29T18:26:59;3.5;;;2.6;;
60718;SDS011;46567;51.660;5.824;2023-07-29T18:31:59;3.9;;;2.6;;
60718;SDS011;46567;51.660;5.824;2023-07-29T18:36:59;2.9;;;2.4;;
60718;SDS011;46567;51.660;5.824;2023-07-29T18:41:59;2.9;;;2.6;;
60718;SDS011;46567;51.660;5.824;2023-07-29T18:46:59;3.3;;;2.8;;
60718;SDS011;46567;51.660;5.824;2023-07-29T18:51:59;3.7;;;2.9;;
60718;SDS011;46567;51.660;5.824;2023-07-29T18:56:59;4.0;;;2.9;;
60718;SDS011;46567;51.660;5.824;2023-07-29T19:01:59;3.3;;;2.8;;
60718;SDS011;46567;51.660;5.824;2023-07-29T19:06:59;3.2;;;2.9;;
60718;SDS011;46567;51.660;5.824;2023-07-29T19:11:59;4.4;;;2.7;;
60718;SDS011;46567;51.660;5.824;2023-07-29T19:16:59;4.1;;;3.1;;
60718;SDS011;46567;51.660;5.824;2023-07-29T19:21:59;3.2;;;2.8;;
60718;SDS011;46567;51.660;5.824;2023-07-29T19:26:59;3.4;;;2.9;;
60718;SDS011;46567;51.660;5.824;2023-07-29T19:31:59;3.9;;;3.2;;
60718;SDS011;46567;51.660;5.824;2023-07-29T19:36:59;2.8;;;2.5;;
60718;SDS011;46567;51.660;5.824;2023-07-29T19:41:59;4.5;;;2.8;;
60718;SDS011;46567;51.660;5.824;2023-07-29T19:46:59;5.2;;;2.5;;
60718;SDS011;46567;51.660;5.824;2023-07-29T19:51:59;6.0;;;2.9;;
60718;SDS011;46567;51.660;5.824;2023-07-29T19:56:59;6.2;;;2.4;;
60718;SDS011;46567;51.660;5.824;2023-07-29T20:01:59;6.4;;;2.7;;
60718;SDS011;46567;51.660;5.824;2023-07-29T20:06:59;6.9;;;2.7;;
60718;SDS011;46567;51.660;5.824;2023-07-29T20:11:59;7.4;;;3.0;;
60718;SDS011;46567;51.660;5.824;2023-07-29T20:16:59;5.4;;;2.9;;
60718;SDS011;46567;51.660;5.824;2023-07-29T20:21:59;9.2;;;3.0;;
60718;SDS011;46567;51.660;5.824;2023-07-29T20:26:59;7.7;;;3.0;;
60718;SDS011;46567;51.660;5.824;2023-07-29T20:31:59;7.4;;;3.2;;
60718;SDS011;46567;51.660;5.824;2023-07-29T20:36:59;7.2;;;3.2;;
60718;SDS011;46567;51.660;5.824;2023-07-29T20:41:59;7.3;;;3.2;;
60718;SDS011;46567;51.660;5.824;2023-07-29T20:46:59;5.3;;;2.9;;
60718;SDS011;46567;51.660;5.824;2023-07-29T20:51:59;8.1;;;3.5;;
60718;SDS011;46567;51.660;5.824;2023-07-29T20:56:59;12.9;;;3.2;;
60718;SDS011;46567;51.660;5.824;2023-07-29T21:01:59;7.4;;;3.7;;
60718;SDS011;46567;51.660;5.824;2023-07-29T21:06:59;8.1;;;3.9;;
60718;SDS011;46567;51.660;5.824;2023-07-29T21:11:59;6.3;;;3.7;;
60718;SDS011;46567;51.660;5.824;2023-07-29T21:16:59;12.0;;;3.8;;
60718;SDS011;46567;51.660;5.824;2023-07-29T21:21:59;8.4;;;3.7;;
60718;SDS011;46567;51.660;5.824;2023-07-29T21:26:59;7.8;;;4.0;;
60718;SDS011;46567;51.660;5.824;2023-07-29T21:31:59;6.9;;;3.8;;
60718;SDS011;46567;51.660;5.824;2023-07-29T21:36:59;8.0;;;3.8;;
60718;SDS011;46567;51.660;5.824;2023-07-29T21:41:59;5.5;;;3.5;;
60718;SDS011;46567;51.660;5.824;2023-07-29T21:46:59;7.6;;;3.6;;
60718;SDS011;46567;51.660;5.824;2023-07-29T21:51:59;7.8;;;4.0;;
60718;SDS011;46567;51.660;5.824;2023-07-29T21:56:59;5.0;;;3.1;;
60718;SDS011;46567;51.660;5.824;2023-07-29T22:01:59;7.2;;;3.5;;
60718;SDS011;46567;51.660;5.824;2023-07-29T22:06:59;6.5;;;3.0;;
60718;SDS011;46567;51.660;5.824;2023-07-29T22:11:59;5.7;;;3.2;;
60718;SDS011;46567;51.660;5.824;2023-07-29T22:16:59;5.8;;;2.9;;
60718;SDS011;46567;51.660;5.824;2023-07-29T22:21:59;7.1;;;3.4;;
60718;SDS011;46567;51.660;5.824;2023-07-29T22:26:59;6.8;;;3.1;;
60718;SDS011;46567;51.660;5.824;2023-07-29T22:31:59;7.4;;;3.3;;
60718;SDS011;46567;51.660;5.824;2023-07-29T22:36:59;8.0;;;3.8;;
60718;SDS011;46567;51.660;5.824;2023-07-29T22:41:59;5.9;;;3.0;;
60718;SDS011;46567;51.660;5.824;2023-07-29T22:46:59;5.3;;;2.9;;
60718;SDS011;46567;51.660;5.824;2023-07-29T22:51:59;9.1;;;3.2;;
60718;SDS011;46567;51.660;5.824;2023-07-29T22:56:59;7.0;;;2.9;;
60718;SDS011;46567;51.660;5.824;2023-07-29T23:01:59;9.3;;;2.9;;
60718;SDS011;46567;51.660;5.824;2023-07-29T23:06:59;6.4;;;3.2;;
60718;SDS011;46567;51.660;5.824;2023-07-29T23:11:59;7.4;;;3.3;;
60718;SDS011;46567;51.660;5.824;2023-07-29T23:16:59;6.8;;;3.3;;
60718;SDS011;46567;51.660;5.824;2023-07-29T23:21:59;5.7;;;3.2;;
60718;SDS011;46567;51.660;5.824;2023-07-29T23:26:59;7.1;;;3.0;;
60718;SDS011;46567;51.660;5.824;2023-07-29T23:31:59;6.8;;;3.3;;
60718;SDS011;46567;51.660;5.824;2023-07-29T23:36:59;7.0;;;3.0;;
60718;SDS011;46567;51.660;5.824;2023-07-29T23:41:59;7.5;;;2.8;;
60718;SDS011;46567;51.660;5.824;2023-07-29T23:51:59;5.8;;;2.9;;
60718;SDS011;46567;51.660;5.824;2023-07-29T23:56:59;9.8;;;2.9;;
